Terminal Aerodrome Forecast
Issued by NWS Greer, SC

Home | Current Version | Previous Version | Text Only | Print | Product List | Glossary On
Versions: 1 2 3 4 5 6 7 8 9 10 11 12 13 14 15 16 17 18 19 20
000
FTUS42 KGSP 261100
TAFGSP
TAF
KGSP 261137Z 2612/2712 25004KT P6SM FEW120 BKN250
      TEMPO 2612/2613 BKN002
     FM261700 23007KT P6SM SCT060
     FM270100 23003KT P6SM SCT070 BKN250=

USA.gov is the U.S. government's official web portal to all federal, state and local government web resources and services.